createdAt,value
2018-02-04T00:02:25.186Z,57.73
2018-02-04T00:04:51.541Z,60.00
2018-02-04T00:07:18.013Z,58.67
2018-02-04T00:09:44.432Z,58.33
2018-02-04T00:12:11.203Z,68.63
2018-02-04T00:14:37.749Z,57.70
2018-02-04T00:17:04.322Z,58.40
2018-02-04T00:19:30.808Z,56.80
2018-02-04T00:21:57.258Z,59.57
2018-02-04T00:24:23.591Z,58.37
2018-02-04T00:26:49.891Z,59.43
2018-02-04T00:29:16.166Z,57.43
2018-02-04T00:31:42.413Z,58.00
2018-02-04T00:34:08.729Z,59.17
2018-02-04T00:36:35.027Z,60.60
2018-02-04T00:39:01.319Z,58.47
2018-02-04T00:41:27.586Z,59.07
2018-02-04T00:43:53.875Z,56.90
2018-02-04T00:46:20.134Z,58.07
2018-02-04T00:48:46.383Z,56.57
2018-02-04T00:51:13.014Z,67.53
2018-02-04T00:53:39.255Z,57.13
2018-02-04T00:56:05.510Z,61.13
2018-02-04T00:58:31.799Z,56.73
2018-02-04T01:00:58.065Z,61.23
2018-02-04T01:03:24.440Z,68.73
2018-02-04T01:05:50.720Z,57.77
2018-02-04T01:08:17.012Z,58.47
2018-02-04T01:10:43.267Z,58.23
2018-02-04T01:13:09.700Z,59.83
2018-02-04T01:15:35.948Z,57.03
2018-02-04T01:18:02.220Z,62.83
2018-02-04T01:20:28.542Z,62.57
2018-02-04T01:22:54.829Z,57.63
2018-02-04T01:25:21.076Z,58.10
2018-02-04T01:27:47.356Z,57.03
2018-02-04T01:30:13.574Z,58.43
2018-02-04T01:32:39.885Z,57.90
2018-02-04T01:35:06.267Z,77.93
2018-02-04T01:37:32.506Z,56.93
2018-02-04T01:39:58.887Z,57.33
2018-02-04T01:42:25.188Z,56.83
2018-02-04T01:44:51.425Z,57.67
2018-02-04T01:47:17.676Z,57.70
2018-02-04T01:49:44.066Z,56.93
2018-02-04T01:52:10.285Z,59.33
2018-02-04T01:54:36.627Z,57.77
2018-02-04T01:57:03.000Z,57.87
2018-02-04T01:59:29.226Z,55.83
2018-02-04T02:01:55.549Z,57.00
2018-02-04T02:04:22.098Z,58.60
2018-02-04T02:06:48.431Z,56.97
2018-02-04T02:09:14.630Z,58.23
2018-02-04T02:11:40.917Z,57.63
2018-02-04T02:14:07.165Z,56.03
2018-02-04T02:16:33.391Z,56.27
2018-02-04T02:18:59.656Z,56.33
2018-02-04T02:21:25.861Z,56.73
2018-02-04T02:23:52.191Z,57.40
2018-02-04T02:26:18.528Z,58.10
2018-02-04T02:28:44.779Z,57.80
2018-02-04T02:31:11.013Z,57.60
2018-02-04T02:33:37.381Z,62.57
2018-02-04T02:36:03.634Z,59.60
2018-02-04T02:38:29.896Z,57.83
2018-02-04T02:40:56.241Z,57.30
2018-02-04T02:43:22.537Z,56.27
2018-02-04T02:45:48.844Z,57.60
2018-02-04T02:48:15.129Z,61.83
2018-02-04T02:50:41.379Z,65.00
2018-02-04T02:53:07.710Z,58.60
2018-02-04T02:55:34.084Z,60.90
2018-02-04T02:58:00.370Z,58.37
2018-02-04T03:00:26.604Z,57.73
2018-02-04T03:02:52.923Z,57.03
2018-02-04T03:05:19.159Z,56.77
2018-02-04T03:07:45.389Z,57.30
2018-02-04T03:10:11.674Z,57.67
2018-02-04T03:12:38.004Z,57.33
2018-02-04T03:15:04.317Z,56.30
2018-02-04T03:17:30.650Z,55.93
2018-02-04T03:19:56.958Z,58.13
2018-02-04T03:22:23.263Z,57.30
2018-02-04T03:24:49.672Z,57.70
2018-02-04T03:27:15.894Z,55.33
2018-02-04T03:29:42.136Z,55.83
2018-02-04T03:32:08.433Z,56.17
2018-02-04T03:34:34.789Z,54.57
2018-02-04T03:37:01.002Z,55.43
2018-02-04T03:39:27.300Z,55.27
2018-02-04T03:41:53.525Z,55.17
2018-02-04T03:44:19.787Z,56.40
2018-02-04T03:46:46.129Z,56.30
2018-02-04T03:49:12.422Z,56.17
2018-02-04T03:51:38.682Z,56.30
2018-02-04T03:54:05.082Z,55.17
2018-02-04T03:56:31.336Z,56.30
2018-02-04T03:58:57.573Z,55.50
2018-02-04T04:01:23.959Z,56.67
2018-02-04T04:03:50.333Z,55.87
2018-02-04T04:06:16.577Z,56.43
2018-02-04T04:08:42.866Z,57.70
2018-02-04T04:11:09.124Z,57.37
2018-02-04T04:13:35.492Z,56.37
2018-02-04T04:16:01.817Z,57.33
2018-02-04T04:18:28.082Z,63.07
2018-02-04T04:20:54.411Z,63.13
2018-02-04T04:23:20.704Z,57.67
2018-02-04T04:25:46.958Z,57.67
2018-02-04T04:28:13.322Z,70.83
2018-02-04T04:30:39.597Z,56.90
2018-02-04T04:33:05.916Z,56.80
2018-02-04T04:35:32.160Z,57.00
2018-02-04T04:37:58.480Z,56.23
2018-02-04T04:40:24.721Z,57.73
2018-02-04T04:42:51.061Z,56.73
2018-02-04T04:45:17.295Z,55.93
2018-02-04T04:47:43.652Z,56.53
2018-02-04T04:50:09.923Z,61.20
2018-02-04T04:52:36.312Z,56.57
2018-02-04T04:55:02.587Z,63.03
2018-02-04T04:57:28.854Z,57.23
2018-02-04T04:59:55.219Z,57.97
2018-02-04T05:02:21.588Z,58.00
2018-02-04T05:04:48.077Z,57.70
2018-02-04T05:07:14.440Z,56.60
2018-02-04T05:09:40.813Z,63.17
2018-02-04T05:12:07.145Z,62.77
2018-02-04T05:14:33.558Z,55.77
2018-02-04T05:16:59.888Z,57.97
2018-02-04T05:19:26.181Z,58.00
2018-02-04T05:21:52.460Z,57.73
2018-02-04T05:24:18.745Z,58.27
2018-02-04T05:26:45.044Z,58.00
2018-02-04T05:29:11.419Z,57.97
2018-02-04T05:31:37.912Z,57.90
2018-02-04T05:34:04.212Z,61.97
2018-02-04T05:36:30.676Z,61.57
2018-02-04T05:38:56.976Z,57.37
2018-02-04T05:41:23.192Z,58.03
2018-02-04T05:43:49.697Z,57.77
2018-02-04T05:46:16.008Z,57.20
2018-02-04T05:48:42.325Z,63.20
2018-02-04T05:51:08.663Z,58.47
2018-02-04T05:53:34.972Z,56.07
2018-02-04T05:56:01.240Z,59.07
2018-02-04T05:58:27.575Z,57.63
2018-02-04T06:00:53.845Z,58.83
2018-02-04T06:03:20.191Z,57.23
2018-02-04T06:05:46.440Z,56.97
2018-02-04T06:08:12.704Z,56.93
2018-02-04T06:10:38.970Z,57.60
2018-02-04T06:13:05.616Z,59.23
2018-02-04T06:15:31.872Z,57.63
2018-02-04T06:17:58.122Z,57.00
2018-02-04T06:20:24.946Z,57.97
2018-02-04T06:22:51.347Z,57.90
2018-02-04T06:25:18.425Z,67.43
2018-02-04T06:27:44.748Z,57.43
2018-02-04T06:30:11.017Z,57.90
2018-02-04T06:32:37.392Z,57.63
2018-02-04T06:35:03.781Z,59.60
2018-02-04T06:37:30.105Z,56.20
2018-02-04T06:39:56.382Z,58.37
2018-02-04T06:42:22.684Z,58.40
2018-02-04T06:44:49.076Z,57.73
2018-02-04T06:47:15.353Z,64.10
2018-02-04T06:49:41.637Z,59.13
2018-02-04T06:52:07.911Z,57.33
2018-02-04T06:54:34.284Z,61.37
2018-02-04T06:57:00.777Z,59.07
2018-02-04T06:59:27.061Z,58.23
2018-02-04T07:01:53.459Z,61.37
2018-02-04T07:04:19.906Z,57.97
2018-02-04T07:06:46.412Z,58.77
2018-02-04T07:09:12.675Z,65.17
2018-02-04T07:11:39.165Z,63.07
2018-02-04T07:14:05.658Z,129.67
2018-02-04T07:16:32.116Z,147.80
2018-02-04T07:18:59.035Z,166.07
2018-02-04T07:21:25.639Z,109.00
2018-02-04T07:23:53.046Z,164.80
2018-02-04T07:26:19.438Z,59.00
2018-02-04T07:28:45.704Z,58.37
2018-02-04T07:31:11.963Z,65.40
2018-02-04T07:33:38.499Z,109.83
2018-02-04T07:36:05.020Z,102.33
2018-02-04T07:38:31.846Z,142.37
2018-02-04T07:40:58.353Z,101.50
2018-02-04T07:43:24.834Z,84.73
2018-02-04T07:45:51.526Z,94.00
2018-02-04T07:48:18.186Z,75.30
2018-02-04T07:50:45.003Z,67.40
2018-02-04T07:53:12.070Z,63.10
2018-02-04T07:55:39.650Z,60.30
2018-02-04T07:58:06.715Z,59.57
2018-02-04T08:00:35.065Z,64.90
2018-02-04T08:03:02.756Z,64.97
2018-02-04T08:05:29.388Z,79.97
2018-02-04T08:07:57.288Z,61.03
2018-02-04T08:10:24.227Z,68.37
2018-02-04T08:12:51.269Z,91.67
2018-02-04T08:15:18.174Z,84.27
2018-02-04T08:17:44.828Z,86.17
2018-02-04T08:20:11.802Z,80.47
2018-02-04T08:22:38.371Z,79.10
2018-02-04T08:25:04.872Z,78.67
2018-02-04T08:27:31.413Z,74.87
2018-02-04T08:29:58.977Z,85.60
2018-02-04T08:32:26.158Z,57.60
2018-02-04T08:34:53.036Z,59.20
2018-02-04T08:37:19.467Z,57.67
2018-02-04T08:39:46.286Z,58.27
2018-02-04T08:42:12.615Z,57.03
2018-02-04T08:44:39.066Z,57.60
2018-02-04T08:47:06.798Z,56.93
2018-02-04T08:49:33.413Z,99.97
2018-02-04T08:51:59.956Z,77.93
2018-02-04T08:54:26.657Z,84.37
2018-02-04T09:02:56.512Z,9.63
2018-02-04T09:09:16.976Z,0.80
2018-02-04T09:11:43.427Z,0.90
2018-02-04T09:14:09.840Z,0.93
2018-02-04T09:16:36.474Z,0.50
2018-02-04T09:19:03.071Z,1.33
2018-02-04T09:21:30.108Z,1.47
2018-02-04T09:23:57.748Z,2.00
2018-02-04T09:26:24.910Z,2.20
2018-02-04T09:28:51.831Z,2.23
2018-02-04T09:31:18.882Z,1.83
2018-02-04T09:33:45.782Z,2.00
2018-02-04T09:36:12.294Z,2.17
2018-02-04T09:38:39.285Z,1.60
2018-02-04T09:41:05.884Z,2.53
2018-02-04T09:43:33.127Z,2.50
2018-02-04T09:45:59.917Z,2.93
2018-02-04T09:48:26.718Z,2.00
2018-02-04T09:53:26.606Z,2.70
2018-02-04T09:55:52.881Z,7.13
2018-02-04T09:58:19.476Z,6.00
2018-02-04T10:00:47.756Z,7.43
2018-02-04T10:03:14.340Z,2.57
2018-02-04T10:05:41.102Z,2.63
2018-02-04T10:08:07.729Z,1.90
2018-02-04T10:10:34.723Z,1.60
2018-02-04T10:13:01.622Z,1.40
2018-02-04T10:15:28.657Z,1.43
2018-02-04T10:17:55.927Z,1.10
2018-02-04T10:20:22.913Z,1.00
2018-02-04T10:22:50.922Z,1.07
2018-02-04T10:25:17.349Z,0.90
2018-02-04T10:27:44.839Z,1.27
2018-02-04T10:30:12.878Z,1.20
2018-02-04T10:32:39.810Z,1.20
2018-02-04T10:35:07.776Z,1.00
2018-02-04T10:37:34.647Z,0.97
2018-02-04T10:40:04.339Z,1.13
2018-02-04T10:42:31.374Z,1.40
2018-02-04T10:44:58.524Z,1.33
2018-02-04T10:47:26.464Z,1.47
2018-02-04T10:49:53.587Z,1.40
2018-02-04T10:52:21.759Z,2.60
2018-02-04T10:54:50.071Z,8.50
2018-02-04T10:57:17.078Z,6.20
2018-02-04T10:59:49.976Z,3.13
2018-02-04T11:02:18.043Z,3.70
2018-02-04T11:04:46.682Z,2.43
2018-02-04T11:07:15.106Z,2.90
2018-02-04T11:09:42.664Z,1.70
2018-02-04T11:12:10.863Z,1.93
2018-02-04T11:14:39.840Z,2.87
2018-02-04T11:17:07.843Z,2.07
2018-02-04T11:19:37.724Z,2.10
2018-02-04T11:22:06.452Z,1.03
2018-02-04T11:24:34.712Z,1.50
2018-02-04T11:27:02.436Z,1.50
2018-02-04T11:29:29.448Z,1.40
2018-02-04T11:31:56.989Z,2.20
2018-02-04T11:34:24.669Z,3.17
2018-02-04T11:36:52.130Z,1.80
2018-02-04T11:39:20.268Z,1.43
2018-02-04T11:41:47.462Z,1.30
2018-02-04T11:44:15.049Z,1.00
2018-02-04T11:46:43.137Z,1.20
2018-02-04T11:49:12.167Z,1.13
2018-02-04T11:51:40.785Z,1.20
2018-02-04T11:54:08.278Z,0.90
2018-02-04T11:56:36.843Z,1.30
2018-02-04T11:59:05.156Z,0.90
2018-02-04T12:01:32.801Z,1.73
2018-02-04T12:04:00.074Z,1.57
2018-02-04T12:06:28.440Z,0.90
2018-02-04T12:08:56.574Z,1.93
2018-02-04T12:11:26.615Z,5.10
2018-02-04T12:13:54.623Z,4.73
2018-02-04T12:16:21.903Z,1.43
2018-02-04T12:18:49.641Z,7.23
2018-02-04T12:21:16.559Z,1.80
2018-02-04T12:23:43.998Z,2.50
2018-02-04T12:26:12.027Z,2.37
2018-02-04T12:28:39.292Z,2.10
2018-02-04T12:31:07.004Z,2.37
2018-02-04T12:33:34.441Z,2.20
2018-02-04T12:36:00.950Z,2.30
2018-02-04T12:38:28.010Z,2.10
2018-02-04T12:40:54.648Z,1.67
2018-02-04T12:43:21.596Z,2.83
2018-02-04T12:45:48.218Z,1.73
2018-02-04T12:48:14.796Z,1.87
2018-02-04T12:50:41.402Z,1.87
2018-02-04T12:53:08.327Z,1.87
2018-02-04T12:55:34.891Z,2.07
2018-02-04T12:58:01.298Z,2.03
2018-02-04T13:00:28.200Z,1.70
2018-02-04T13:02:54.742Z,1.63
2018-02-04T13:05:21.192Z,2.10
2018-02-04T13:07:47.772Z,1.97
2018-02-04T13:10:14.361Z,2.03
2018-02-04T13:12:40.729Z,1.80
2018-02-04T13:15:07.296Z,2.60
2018-02-04T13:17:34.469Z,1.83
2018-02-04T13:20:01.646Z,2.50
2018-02-04T13:22:29.395Z,1.80
2018-02-04T13:24:57.014Z,1.60
2018-02-04T13:27:23.967Z,2.07
2018-02-04T13:29:51.140Z,1.60
2018-02-04T13:32:18.567Z,3.90
2018-02-04T13:34:46.799Z,2.07
2018-02-04T13:37:14.032Z,2.13
2018-02-04T13:39:40.998Z,2.07
2018-02-04T13:42:09.150Z,1.40
2018-02-04T13:44:36.104Z,1.77
2018-02-04T13:47:02.833Z,1.80
2018-02-04T13:49:32.892Z,2.17
2018-02-04T13:52:02.739Z,2.27
2018-02-04T13:54:29.314Z,1.70
2018-02-04T13:56:56.554Z,1.90
2018-02-04T13:59:23.226Z,2.23
2018-02-04T14:01:49.841Z,3.47
2018-02-04T14:04:16.449Z,3.20
2018-02-04T14:06:44.999Z,2.90
2018-02-04T14:09:11.658Z,2.53
2018-02-04T14:11:38.384Z,3.23
2018-02-04T14:14:05.361Z,2.23
2018-02-04T14:16:32.045Z,2.60
2018-02-04T14:18:58.729Z,5.00
2018-02-04T14:21:25.623Z,3.27
2018-02-04T14:23:53.143Z,2.00
2018-02-04T14:26:21.121Z,2.10
2018-02-04T14:28:50.177Z,17.03
2018-02-04T14:31:18.625Z,5.93
2018-02-04T14:33:47.576Z,7.57
2018-02-04T14:36:17.501Z,10.27
2018-02-04T14:38:47.060Z,6.83
2018-02-04T14:41:15.497Z,17.03
2018-02-04T14:43:43.724Z,5.87
2018-02-04T14:46:12.528Z,17.73
2018-02-04T14:48:41.607Z,9.27
2018-02-04T14:51:10.521Z,3.60
2018-02-04T14:53:37.784Z,2.77
2018-02-04T14:56:04.843Z,2.87
2018-02-04T14:58:32.671Z,2.83
2018-02-04T15:01:00.177Z,3.33
2018-02-04T15:03:29.991Z,3.33
2018-02-04T15:05:57.336Z,7.90
2018-02-04T15:08:27.073Z,2.60
2018-02-04T15:11:00.619Z,2.50
2018-02-04T15:13:28.397Z,2.60
2018-02-04T15:15:56.923Z,3.03
2018-02-04T15:18:24.305Z,4.50
2018-02-04T15:20:52.167Z,10.57
2018-02-04T15:23:19.343Z,7.70
2018-02-04T15:25:46.871Z,20.50
2018-02-04T15:28:15.706Z,9.07
2018-02-04T15:30:42.920Z,7.47
2018-02-04T15:33:10.091Z,33.70
2018-02-04T15:35:38.000Z,21.07
2018-02-04T15:38:04.878Z,12.63
2018-02-04T15:40:31.839Z,14.07
2018-02-04T15:43:00.987Z,11.00
2018-02-04T15:45:29.849Z,9.80
2018-02-04T15:47:58.749Z,9.80
2018-02-04T15:50:26.496Z,8.20
2018-02-04T15:52:55.139Z,6.90
2018-02-04T15:55:23.335Z,7.33
2018-02-04T15:57:50.178Z,6.03
2018-02-04T16:00:17.161Z,14.83
2018-02-04T16:02:43.998Z,9.43
2018-02-04T16:05:11.891Z,23.20
2018-02-04T16:07:39.867Z,8.50
2018-02-04T16:10:06.836Z,12.27
2018-02-04T16:12:35.615Z,13.27
2018-02-04T16:15:05.285Z,13.67
2018-02-04T16:17:32.494Z,12.60
2018-02-04T16:20:01.171Z,9.83
2018-02-04T16:22:28.405Z,13.40
2018-02-04T16:24:55.324Z,9.77
2018-02-04T16:27:22.819Z,12.80
2018-02-04T16:29:49.515Z,15.90
2018-02-04T16:32:16.225Z,13.13
2018-02-04T16:34:46.531Z,18.37
2018-02-04T16:37:14.361Z,12.60
2018-02-04T16:39:41.463Z,10.50
2018-02-04T16:42:08.153Z,11.23
2018-02-04T16:44:34.898Z,9.37
2018-02-04T16:47:04.549Z,10.17
2018-02-04T16:49:31.562Z,9.13
2018-02-04T16:51:58.413Z,7.43
2018-02-04T16:54:31.017Z,7.03
2018-02-04T16:56:58.505Z,8.30
2018-02-04T16:59:26.700Z,7.80
2018-02-04T17:01:53.898Z,7.90
2018-02-04T17:04:21.639Z,10.07
2018-02-04T17:06:48.562Z,11.00
2018-02-04T17:09:15.120Z,9.70
2018-02-04T17:11:41.749Z,19.33
2018-02-04T17:14:08.304Z,18.97
2018-02-04T17:16:35.040Z,11.07
2018-02-04T17:19:01.652Z,10.17
2018-02-04T17:21:29.060Z,10.83
2018-02-04T17:23:58.505Z,9.67
2018-02-04T17:26:25.499Z,9.20
2018-02-04T17:28:52.169Z,9.00
2018-02-04T17:31:19.492Z,10.10
2018-02-04T17:33:47.037Z,9.27
2018-02-04T17:36:14.301Z,9.30
2018-02-04T17:38:41.351Z,9.30
2018-02-04T17:41:08.945Z,10.17
2018-02-04T17:43:36.547Z,9.43
2018-02-04T17:46:03.925Z,8.97
2018-02-04T17:48:30.496Z,9.80
2018-02-04T17:50:57.417Z,10.67
2018-02-04T17:53:24.136Z,11.07
2018-02-04T17:55:54.207Z,9.27
2018-02-04T17:58:21.636Z,8.43
2018-02-04T18:00:49.082Z,8.57
2018-02-04T18:03:16.651Z,10.30
2018-02-04T18:05:44.362Z,8.20
2018-02-04T18:08:12.279Z,11.03
2018-02-04T18:10:39.390Z,9.77
2018-02-04T18:13:06.549Z,9.83
2018-02-04T18:15:33.432Z,9.07
2018-02-04T18:18:00.526Z,8.90
2018-02-04T18:20:27.490Z,8.27
2018-02-04T18:22:54.692Z,6.53
2018-02-04T18:25:21.490Z,6.70
2018-02-04T18:27:48.360Z,6.17
2018-02-04T18:30:15.066Z,6.43
2018-02-04T18:32:41.678Z,7.33
2018-02-04T18:35:09.664Z,7.10
2018-02-04T18:37:36.854Z,6.00
2018-02-04T18:40:03.596Z,6.60
2018-02-04T18:42:30.095Z,5.87
2018-02-04T18:44:58.071Z,5.70
2018-02-04T18:47:24.909Z,5.83
2018-02-04T18:49:51.839Z,6.57
2018-02-04T18:52:19.136Z,5.97
2018-02-04T18:54:46.095Z,6.07
2018-02-04T18:57:13.964Z,6.27
2018-02-04T18:59:43.952Z,5.73
2018-02-04T19:02:11.499Z,7.07
2018-02-04T19:04:38.837Z,5.10
2018-02-04T19:07:06.470Z,6.50
2018-02-04T19:09:36.804Z,6.00
2018-02-04T19:12:05.774Z,6.23
2018-02-04T19:14:32.866Z,5.53
2018-02-04T19:17:00.111Z,6.70
2018-02-04T19:19:28.087Z,5.93
2018-02-04T19:21:55.955Z,6.63
2018-02-04T19:24:27.805Z,6.27
2018-02-04T19:26:57.315Z,5.77
2018-02-04T19:29:25.036Z,6.70
2018-02-04T19:31:52.202Z,5.63
2018-02-04T19:34:20.558Z,6.57
2018-02-04T19:36:48.886Z,7.10
2018-02-04T19:39:17.473Z,6.47
2018-02-04T19:41:46.048Z,6.07
2018-02-04T19:44:13.630Z,6.73
2018-02-04T19:46:43.545Z,8.40
2018-02-04T19:49:10.621Z,6.70
2018-02-04T19:51:38.689Z,6.53
2018-02-04T19:54:06.117Z,6.90
2018-02-04T19:56:33.668Z,6.27
2018-02-04T19:59:03.500Z,6.70
2018-02-04T20:01:32.611Z,6.63
2018-02-04T20:04:02.373Z,7.50
2018-02-04T20:06:30.455Z,6.23
2018-02-04T20:08:58.735Z,5.80
2018-02-04T20:11:26.190Z,6.27
2018-02-04T20:13:53.945Z,6.17
2018-02-04T20:16:21.366Z,6.37
2018-02-04T20:18:48.927Z,6.17
2018-02-04T20:21:16.585Z,5.53
2018-02-04T20:23:45.915Z,5.77
2018-02-04T20:26:13.057Z,6.43
2018-02-04T20:28:39.913Z,6.23
2018-02-04T20:31:07.834Z,5.17
2018-02-04T20:33:46.979Z,5.83
2018-02-04T20:36:13.970Z,4.60
2018-02-04T20:38:41.647Z,5.43
2018-02-04T20:41:08.161Z,5.40
2018-02-04T20:43:34.691Z,5.60
2018-02-04T20:46:01.257Z,5.30
2018-02-04T20:48:27.969Z,5.37
2018-02-04T20:50:54.902Z,5.13
2018-02-04T20:53:21.810Z,6.97
2018-02-04T20:55:49.536Z,6.50
2018-02-04T20:58:16.492Z,6.77
2018-02-04T21:00:43.157Z,5.13
2018-02-04T21:03:09.856Z,5.07
2018-02-04T21:05:41.208Z,5.37
2018-02-04T21:08:07.723Z,5.43
2018-02-04T21:10:34.251Z,5.60
2018-02-04T21:13:00.781Z,5.00
2018-02-04T21:15:27.327Z,5.50
2018-02-04T21:17:53.929Z,5.67
2018-02-04T21:20:20.628Z,5.97
2018-02-04T21:22:47.133Z,6.07
2018-02-04T21:25:13.641Z,5.73
2018-02-04T21:27:40.157Z,7.10
2018-02-04T21:30:06.756Z,6.30
2018-02-04T21:32:33.288Z,6.20
2018-02-04T21:34:59.788Z,5.80
2018-02-04T21:37:27.188Z,6.63
2018-02-04T21:39:53.712Z,6.30
2018-02-04T21:42:20.221Z,6.40
2018-02-04T21:44:47.342Z,7.40
2018-02-04T21:47:14.045Z,6.80
2018-02-04T21:49:40.519Z,6.73
2018-02-04T21:52:07.071Z,6.70
2018-02-04T21:54:33.600Z,6.03
2018-02-04T21:56:59.996Z,6.10
2018-02-04T21:59:26.641Z,6.80
2018-02-04T22:01:53.202Z,6.80
2018-02-04T22:04:19.954Z,6.03
2018-02-04T22:06:46.553Z,6.37
2018-02-04T22:09:13.045Z,6.80
2018-02-04T22:11:40.889Z,7.00
2018-02-04T22:14:07.479Z,7.37
2018-02-04T22:16:34.225Z,6.37
2018-02-04T22:19:00.796Z,6.60
2018-02-04T22:21:27.326Z,6.30
2018-02-04T22:23:53.829Z,7.37
2018-02-04T22:26:20.339Z,7.10
2018-02-04T22:28:46.830Z,6.77
2018-02-04T22:31:13.267Z,6.77
2018-02-04T22:33:39.657Z,6.33
2018-02-04T22:36:06.084Z,6.87
2018-02-04T22:38:32.529Z,6.63
2018-02-04T22:40:58.986Z,6.23
2018-02-04T22:43:25.458Z,7.47
2018-02-04T22:45:53.006Z,6.50
2018-02-04T22:48:19.491Z,7.77
2018-02-04T22:50:45.961Z,7.70
2018-02-04T22:53:12.557Z,5.77
2018-02-04T22:55:44.887Z,7.43
2018-02-04T22:58:11.290Z,6.30
2018-02-04T23:00:37.739Z,7.20
2018-02-04T23:03:04.205Z,6.80
2018-02-04T23:05:31.686Z,7.43
2018-02-04T23:07:58.047Z,5.57
2018-02-04T23:10:24.577Z,5.90
2018-02-04T23:12:51.023Z,6.27
2018-02-04T23:15:18.536Z,5.87
2018-02-04T23:17:44.966Z,5.20
2018-02-04T23:20:11.565Z,5.93
2018-02-04T23:22:38.026Z,5.60
2018-02-04T23:25:04.512Z,4.97
2018-02-04T23:27:30.993Z,6.03
2018-02-04T23:29:57.539Z,5.63
2018-02-04T23:32:23.941Z,5.47
2018-02-04T23:34:57.628Z,5.60
2018-02-04T23:37:24.054Z,6.70
2018-02-04T23:39:50.435Z,6.30
2018-02-04T23:42:16.851Z,6.33
2018-02-04T23:44:43.446Z,6.07
2018-02-04T23:47:09.843Z,6.63
2018-02-04T23:49:36.263Z,5.50
2018-02-04T23:52:02.635Z,7.13
2018-02-04T23:54:29.079Z,6.43
2018-02-04T23:56:55.506Z,7.00
2018-02-04T23:59:21.948Z,7.37
